Ana Sayfa
METAR-TAF:

METAR-TAF

Havaalanları :

Pocatello Regional Airport

Pocatello, Idaho, Amerika Birleşik Devletleri

Enlem: 42-55-13N, Boylam: 112-34-16W, yükseklik: 1356 m

Güncel hava durumu gözlemi

Rapor saat 21:53 UTC de 43 dakika önce yapıldı.
Rüzgar batıdan 12 kt
Sıcaklık 31°C
Nem 21%
Basınç 1015 hPa
Görüş mesafesi: 16.1 km
7000 ft yükseklikte parçalı bulutlu

METAR: KPIH 172153Z 28012KT 10SM SCT070 31/06 A2997 RMK AO2 SLP101 T03060056

Saat: 16:36 (22:36 UTC)

Tahmin

Rapor saat 17:20 UTC de 5 saat ve 16 dakika önce yapıldı.
Ayın 17'si saat 18 UTC'den ayın 18'si saat 18 UTC'ye kadar geçerli Tahmin
Rüzgar batı/güneybatıdan 12 kt
Görüş mesafesi: 10 km
9000 ft yükseklikte az bulutlu
14000 ft yükseklikte parçalı bulutlu
Ayın 18'si saat 0300 UTC'den
Rüzgar güney/güneybatıdan 9 kt
Görüş mesafesi: 10 km
Açık gökyüzü

TAF: KPIH 171720Z 1718/1818 25012KT P6SM FEW090 SCT140 FM180300 21009KT P6SM SKC

4.000'den fazla havaalanı için hava durumu gözlemleri ve tahminleri (METAR ve TAF raporları).

Kullanılabilir istasyonlar harita üzerinde sarı ve kırmızı noktalarla gösterilir.

İstasyonun adını görmek için fareyi noktanın üzerinde gezdirin.

Sonrasında hava gözlem ve tahminlerini görmek için tıklayın.

Haritayı değiştirmek için: yaklaştırmak için siyah artı işaretli yeşil düğmeye ve uzaklaştırmak için de eksi işaretli düğmeye hızla tıklayın; bitişik haritalar için yeşil okları kullanın.


METAR-TAF: